Seaway II — ZMR3466 — position and weather

sailwx.info

Track history (hours):
 
Tides and Currents Weather Stations Pressure Air Temp Water Temp Dewpoint Dewpoint Depression Visibility Wind Speed Wind Dir Waves Ship Positions

Seaway II

Last reported at 2015-Mar-01 22:25 UTC. Time now 2015-Mar-01 23:27 UTC.
Position S 36°53' E 174°54'.

Length 37 m.

Type: Passenger vessel. MMSI: 512001026.

Date/timePositionNaut miles runAvg speedWind from/ knotsBaromVisibWave heightAir tempDewpointWater temp
2015-Mar-01 22:25S 36°53' E 174°54'0 0.0
2015-Mar-01 20:30S 36°53' E 174°54'2 2.1
2015-Mar-01 19:33S 36°51' E 174°54'3 3.4
2015-Mar-01 18:33S 36°50' E 174°58'1 1.0
2015-Mar-01 17:27S 36°50' E 174°56'1 1.5
2015-Mar-01 16:32S 36°50' E 174°58'4 1.3
2015-Mar-01 13:08S 36°53' E 174°54'0 0.0
2015-Mar-01 12:17S 36°53' E 174°54'0 0.0
2015-Mar-01 10:05S 36°53' E 174°54'0 0.0
2015-Mar-01 09:29S 36°53' E 174°54'1 0.2
2015-Mar-01 06:22S 36°52' E 174°54'3 1.0
2015-Mar-01 03:33S 36°49' E 174°55'7 6.2
2015-Mar-01 02:25S 36°50' E 174°46'5 2.9
2015-Mar-01 00:32S 36°49' E 174°53'2 1.6
2015-Feb-28 23:14S 36°50' E 174°50'9 5.2
2015-Feb-28 21:28S 36°49' E 175°01'1313.9
2015-Feb-28 20:33S 36°50' E 174°46'4 0.2
2015-Feb-28 05:11S 36°50' E 174°50'3 1.9
2015-Feb-28 03:33S 36°49' E 174°54'1 0.5
2015-Feb-28 00:30S 36°49' E 174°52'7 2.1
2015-Feb-27 21:24S 36°49' E 175°01'6 0.3
2015-Feb-26 21:28S 36°53' E 174°54'2 1.0
2015-Feb-26 19:32S 36°51' E 174°54'3 2.9
2015-Feb-26 18:33S 36°50' E 174°57'1 0.4
2015-Feb-26 16:22S 36°50' E 174°56'3 0.1
2015-Feb-25 14:05S 36°53' E 174°54'0 0.0
2015-Feb-25 13:17S 36°53' E 174°54'0 0.0
2015-Feb-25 11:17S 36°53' E 174°54'0 0.0
2015-Feb-25 10:14S 36°53' E 174°54'0 0.0
2015-Feb-25 07:26S 36°53' E 174°54'0 0.0
2015-Feb-25 06:14S 36°53' E 174°54'4 4.3
2015-Feb-25 05:21S 36°50' E 174°57'1 1.5
2015-Feb-25 04:32S 36°50' E 174°58'5 3.8
2015-Feb-25 03:20S 36°53' E 174°54'0 0.0
2015-Feb-25 02:13S 36°53' E 174°54'0 0.0
2015-Feb-25 01:31S 36°53' E 174°54'4 1.9
2015-Feb-24 23:33S 36°50' E 174°57'4 3.7
2015-Feb-24 22:32S 36°53' E 174°54'0 0.0
2015-Feb-24 21:32S 36°53' E 174°54'0 0.0
2015-Feb-24 20:26S 36°53' E 174°54'2 2.3
2015-Feb-24 19:33S 36°51' E 174°54'3 2.6
2015-Feb-24 18:33S 36°50' E 174°57'0 0.3
2015-Feb-24 17:26S 36°50' E 174°56'2 2.1
2015-Feb-24 16:28S 36°51' E 174°54'2 0.3
2015-Feb-24 08:32S 36°53' E 174°54'0 0.0
2015-Feb-24 07:29S 36°53' E 174°54'0 0.0
2015-Feb-24 06:32S 36°53' E 174°54'3 3.5
2015-Feb-24 05:33S 36°49' E 174°53'4 3.7
2015-Feb-24 04:33S 36°50' E 174°57'0 0.1
2015-Feb-24 01:31S 36°50' E 174°57'4 1.8
2015-Feb-23 23:32S 36°53' E 174°54'4 3.7
2015-Feb-23 22:31S 36°50' E 174°56'0 0.4
2015-Feb-23 21:31S 36°50' E 174°57'3 2.1
2015-Feb-23 20:08S 36°52' E 174°54'0 0.0
2015-Feb-23 18:10S 36°52' E 174°54'3 1.7
2015-Feb-23 16:32S 36°49' E 174°54'3 2.7
2015-Feb-23 15:33S 36°52' E 174°54'1 0.2
2015-Feb-23 06:23S 36°51' E 174°53'2 1.1
2015-Feb-23 04:32S 36°50' E 174°55'2 0.6
2015-Feb-23 00:12S 36°52' E 174°54'910.1
2015-Feb-22 23:19S 36°44' E 174°57'0 0.5
2015-Feb-22 22:31S 36°44' E 174°57'0 0.4
2015-Feb-22 21:29S 36°44' E 174°57'6 1.2
2015-Feb-22 16:31S 36°49' E 174°54'4 2.7
2015-Feb-22 15:11S 36°53' E 174°54'0 0.0
2015-Feb-22 08:17S 36°53' E 174°54'0 0.0
2015-Feb-22 07:22S 36°53' E 174°54'3 3.5
2015-Feb-22 06:33S 36°50' E 174°52'2 0.7
2015-Feb-22 03:33S 36°49' E 174°54'2 0.5
2015-Feb-22 00:28S 36°49' E 174°52'2 1.4
2015-Feb-21 23:10S 36°50' E 174°50'8 4.9
2015-Feb-21 21:28S 36°49' E 175°00'12 0.7
2015-Feb-21 05:31S 36°50' E 174°46'7 3.5
2015-Feb-21 03:33S 36°49' E 174°54'7 6.3
2015-Feb-21 02:28S 36°50' E 174°46'7 3.5
2015-Feb-21 00:33S 36°49' E 174°54'4 2.9
2015-Feb-20 23:13S 36°50' E 174°49'9 5.2
2015-Feb-20 21:32S 36°49' E 175°00'6 0.3
2015-Feb-20 04:27S 36°51' E 174°54'2 1.7
2015-Feb-20 03:14S 36°53' E 174°54'0 0.0
2015-Feb-20 02:32S 36°53' E 174°54'3 2.7
2015-Feb-20 01:33S 36°50' E 174°53'4 2.2
2015-Feb-19 23:33S 36°50' E 174°58'  
Track history (hours):
 
Tides and Currents Weather Stations Pressure Air Temp Water Temp Dewpoint Dewpoint Depression Visibility Wind Speed Wind Dir Waves Ship Positions

Seaway II

Last reported at 2015-Mar-01 22:25 UTC. Time now 2015-Mar-01 23:27 UTC.
Position S 36°53' E 174°54'.

Length 37 m.

Type: Passenger vessel. MMSI: 512001026.

Date/timePositionNaut miles runAvg speedWind from/ knotsBaromVisibWave heightAir tempDewpointWater temp
2015-Mar-01 22:25S 36°53' E 174°54'0 0.0
2015-Mar-01 20:30S 36°53' E 174°54'2 2.1
2015-Mar-01 19:33S 36°51' E 174°54'3 3.4
2015-Mar-01 18:33S 36°50' E 174°58'1 1.0
2015-Mar-01 17:27S 36°50' E 174°56'1 1.5
2015-Mar-01 16:32S 36°50' E 174°58'4 1.3
2015-Mar-01 13:08S 36°53' E 174°54'0 0.0
2015-Mar-01 12:17S 36°53' E 174°54'0 0.0
2015-Mar-01 10:05S 36°53' E 174°54'0 0.0
2015-Mar-01 09:29S 36°53' E 174°54'1 0.2
2015-Mar-01 06:22S 36°52' E 174°54'3 1.0
2015-Mar-01 03:33S 36°49' E 174°55'7 6.2
2015-Mar-01 02:25S 36°50' E 174°46'5 2.9
2015-Mar-01 00:32S 36°49' E 174°53'2 1.6
2015-Feb-28 23:14S 36°50' E 174°50'9 5.2
2015-Feb-28 21:28S 36°49' E 175°01'1313.9
2015-Feb-28 20:33S 36°50' E 174°46'4 0.2
2015-Feb-28 05:11S 36°50' E 174°50'3 1.9
2015-Feb-28 03:33S 36°49' E 174°54'1 0.5
2015-Feb-28 00:30S 36°49' E 174°52'7 2.1
2015-Feb-27 21:24S 36°49' E 175°01'6 0.3
2015-Feb-26 21:28S 36°53' E 174°54'2 1.0
2015-Feb-26 19:32S 36°51' E 174°54'3 2.9
2015-Feb-26 18:33S 36°50' E 174°57'1 0.4
2015-Feb-26 16:22S 36°50' E 174°56'3 0.1
2015-Feb-25 14:05S 36°53' E 174°54'0 0.0
2015-Feb-25 13:17S 36°53' E 174°54'0 0.0
2015-Feb-25 11:17S 36°53' E 174°54'0 0.0
2015-Feb-25 10:14S 36°53' E 174°54'0 0.0
2015-Feb-25 07:26S 36°53' E 174°54'0 0.0
2015-Feb-25 06:14S 36°53' E 174°54'4 4.3
2015-Feb-25 05:21S 36°50' E 174°57'1 1.5
2015-Feb-25 04:32S 36°50' E 174°58'5 3.8
2015-Feb-25 03:20S 36°53' E 174°54'0 0.0
2015-Feb-25 02:13S 36°53' E 174°54'0 0.0
2015-Feb-25 01:31S 36°53' E 174°54'4 1.9
2015-Feb-24 23:33S 36°50' E 174°57'4 3.7
2015-Feb-24 22:32S 36°53' E 174°54'0 0.0
2015-Feb-24 21:32S 36°53' E 174°54'0 0.0
2015-Feb-24 20:26S 36°53' E 174°54'2 2.3
2015-Feb-24 19:33S 36°51' E 174°54'3 2.6
2015-Feb-24 18:33S 36°50' E 174°57'0 0.3
2015-Feb-24 17:26S 36°50' E 174°56'2 2.1
2015-Feb-24 16:28S 36°51' E 174°54'2 0.3
2015-Feb-24 08:32S 36°53' E 174°54'0 0.0
2015-Feb-24 07:29S 36°53' E 174°54'0 0.0
2015-Feb-24 06:32S 36°53' E 174°54'3 3.5
2015-Feb-24 05:33S 36°49' E 174°53'4 3.7
2015-Feb-24 04:33S 36°50' E 174°57'0 0.1
2015-Feb-24 01:31S 36°50' E 174°57'4 1.8
2015-Feb-23 23:32S 36°53' E 174°54'4 3.7
2015-Feb-23 22:31S 36°50' E 174°56'0 0.4
2015-Feb-23 21:31S 36°50' E 174°57'3 2.1
2015-Feb-23 20:08S 36°52' E 174°54'0 0.0
2015-Feb-23 18:10S 36°52' E 174°54'3 1.7
2015-Feb-23 16:32S 36°49' E 174°54'3 2.7
2015-Feb-23 15:33S 36°52' E 174°54'1 0.2
2015-Feb-23 06:23S 36°51' E 174°53'2 1.1
2015-Feb-23 04:32S 36°50' E 174°55'2 0.6
2015-Feb-23 00:12S 36°52' E 174°54'910.1
2015-Feb-22 23:19S 36°44' E 174°57'0 0.5
2015-Feb-22 22:31S 36°44' E 174°57'0 0.4
2015-Feb-22 21:29S 36°44' E 174°57'6 1.2
2015-Feb-22 16:31S 36°49' E 174°54'4 2.7
2015-Feb-22 15:11S 36°53' E 174°54'0 0.0
2015-Feb-22 08:17S 36°53' E 174°54'0 0.0
2015-Feb-22 07:22S 36°53' E 174°54'3 3.5
2015-Feb-22 06:33S 36°50' E 174°52'2 0.7
2015-Feb-22 03:33S 36°49' E 174°54'2 0.5
2015-Feb-22 00:28S 36°49' E 174°52'2 1.4
2015-Feb-21 23:10S 36°50' E 174°50'8 4.9
2015-Feb-21 21:28S 36°49' E 175°00'12 0.7
2015-Feb-21 05:31S 36°50' E 174°46'7 3.5
2015-Feb-21 03:33S 36°49' E 174°54'7 6.3
2015-Feb-21 02:28S 36°50' E 174°46'7 3.5
2015-Feb-21 00:33S 36°49' E 174°54'4 2.9
2015-Feb-20 23:13S 36°50' E 174°49'9 5.2
2015-Feb-20 21:32S 36°49' E 175°00'6 0.3
2015-Feb-20 04:27S 36°51' E 174°54'2 1.7
2015-Feb-20 03:14S 36°53' E 174°54'0 0.0
2015-Feb-20 02:32S 36°53' E 174°54'3 2.7
2015-Feb-20 01:33S 36°50' E 174°53'4 2.2
2015-Feb-19 23:33S 36°50' E 174°58'  

Dump ship's entire track history